Time;durP1;ratioP1;P1;durP2;ratioP2;P2;SDS_P1;SDS_P2;PMS_P1;PMS_P2;Temp;Humidity;BMP_temperature;BMP_pressure;BME280_temperature;BME280_humidity;BME280_pressure;Samples;Min_cycle;Max_cycle;Signal;HPM_P1;HPM_P2
2021/04/25 00:01:59;;;;;;;1.50;1.20;;;7.20;80.80;;;;;;5017024;28;20452;-82
2021/04/25 00:04:26;;;;;;;1.50;1.20;;;7.10;80.90;;;;;;5017494;28;20460;-81
2021/04/25 00:06:52;;;;;;;1.50;1.30;;;7.10;81.10;;;;;;5019421;28;20484;-81
2021/04/25 00:09:20;;;;;;;1.50;1.30;;;7.10;81.30;;;;;;5019492;28;20563;-81
2021/04/25 00:11:46;;;;;;;1.50;1.30;;;7.00;81.40;;;;;;5016636;28;20500;-81
2021/04/25 00:14:13;;;;;;;1.50;1.20;;;7.00;81.50;;;;;;5017509;28;20471;-81
2021/04/25 00:16:40;;;;;;;1.50;1.20;;;6.90;82.00;;;;;;5017762;28;21037;-81
2021/04/25 00:19:06;;;;;;;1.50;1.20;;;6.90;82.00;;;;;;5014612;28;20464;-81
2021/04/25 00:21:33;;;;;;;1.50;1.30;;;6.90;82.30;;;;;;5018147;28;20472;-81
2021/04/25 00:24:00;;;;;;;1.60;1.40;;;6.80;82.60;;;;;;5017553;28;20461;-81
2021/04/25 00:26:27;;;;;;;1.50;1.33;;;6.80;83.00;;;;;;5018347;28;20550;-81
2021/04/25 00:28:53;;;;;;;1.53;1.40;;;6.70;83.10;;;;;;5017996;28;20668;-80
2021/04/25 00:31:20;;;;;;;1.50;1.20;;;6.70;83.20;;;;;;5018144;28;20987;-81
2021/04/25 00:33:47;;;;;;;1.57;1.40;;;6.70;83.40;;;;;;5013360;28;20466;-81
2021/04/25 00:36:13;;;;;;;1.50;1.40;;;6.70;83.60;;;;;;5016601;28;20970;-81
2021/04/25 00:38:39;;;;;;;1.57;1.40;;;6.60;83.90;;;;;;5018439;28;20894;-80
2021/04/25 00:41:06;;;;;;;1.50;1.30;;;6.60;84.30;;;;;;5018270;28;20484;-81
2021/04/25 00:43:33;;;;;;;1.57;1.40;;;6.50;84.40;;;;;;5018295;28;20512;-80
2021/04/25 00:45:59;;;;;;;1.50;1.30;;;6.40;84.50;;;;;;5017830;28;20483;-81
2021/04/25 00:48:26;;;;;;;1.50;1.40;;;6.40;84.80;;;;;;5018493;28;20464;-80
2021/04/25 00:50:53;;;;;;;1.50;1.20;;;6.40;85.10;;;;;;5015977;28;20542;-80
2021/04/25 00:53:20;;;;;;;1.50;1.30;;;6.30;85.30;;;;;;5016692;28;20997;-80
2021/04/25 00:55:48;;;;;;;1.50;1.23;;;6.30;85.50;;;;;;5011898;28;20480;-80
2021/04/25 00:58:15;;;;;;;1.50;1.30;;;6.30;85.90;;;;;;5015416;28;20500;-81
2021/04/25 01:00:42;;;;;;;1.50;1.30;;;6.20;86.10;;;;;;5006504;28;20483;-80
2021/04/25 01:03:08;;;;;;;1.50;1.30;;;6.20;86.10;;;;;;5018170;28;20514;-81
2021/04/25 01:05:36;;;;;;;1.53;1.30;;;6.20;86.30;;;;;;5015365;28;20488;-80
2021/04/25 01:08:03;;;;;;;1.53;1.30;;;6.10;86.30;;;;;;5016848;28;20460;-79
2021/04/25 01:10:29;;;;;;;1.53;1.30;;;6.10;86.50;;;;;;5014187;28;20515;-80
2021/04/25 01:12:55;;;;;;;1.53;1.30;;;6.10;86.90;;;;;;5013067;28;20456;-80
2021/04/25 01:15:22;;;;;;;1.50;1.20;;;6.00;87.00;;;;;;5010919;28;20472;-79
2021/04/25 01:17:49;;;;;;;1.50;1.20;;;6.00;87.50;;;;;;5014396;28;20492;-81
2021/04/25 01:20:19;;;;;;;1.60;1.30;;;6.00;87.20;;;;;;5017296;28;20476;-79
2021/04/25 01:22:46;;;;;;;1.50;1.30;;;5.90;87.40;;;;;;5011973;28;20522;-80
2021/04/25 01:25:15;;;;;;;1.50;1.20;;;5.90;87.50;;;;;;5012974;28;20847;-80
2021/04/25 01:27:41;;;;;;;1.53;1.40;;;5.80;87.90;;;;;;5011960;28;20472;-81
2021/04/25 01:30:10;;;;;;;1.50;1.30;;;5.80;87.80;;;;;;5017186;28;20524;-80
2021/04/25 01:32:39;;;;;;;1.53;1.30;;;5.80;88.20;;;;;;5017530;28;20555;-81
2021/04/25 01:35:06;;;;;;;1.60;1.40;;;5.80;88.10;;;;;;5018557;28;20535;-80
2021/04/25 01:37:33;;;;;;;1.60;1.30;;;5.80;88.60;;;;;;5016476;28;20494;-80
2021/04/25 01:40:00;;;;;;;1.53;1.30;;;5.70;88.50;;;;;;5013496;28;20484;-80
2021/04/25 01:42:26;;;;;;;1.60;1.50;;;5.70;88.50;;;;;;5014867;28;20456;-80
2021/04/25 01:44:53;;;;;;;1.50;1.30;;;5.70;88.60;;;;;;5015695;28;20457;-80
2021/04/25 01:47:19;;;;;;;1.50;1.20;;;5.70;88.80;;;;;;5012188;28;21036;-80
2021/04/25 01:49:45;;;;;;;2.47;2.27;;;5.70;88.80;;;;;;5004131;28;20468;-81
2021/04/25 01:52:12;;;;;;;1.60;1.30;;;5.60;88.80;;;;;;5011601;28;20860;-79
2021/04/25 01:54:38;;;;;;;1.60;1.50;;;5.60;88.90;;;;;;5005852;28;20464;-80
2021/04/25 01:57:06;;;;;;;1.50;1.30;;;5.60;88.90;;;;;;5012048;28;20484;-79
2021/04/25 01:59:34;;;;;;;1.50;1.30;;;5.60;89.00;;;;;;5009535;28;20491;-79
2021/04/25 02:02:00;;;;;;;1.50;1.30;;;5.60;88.90;;;;;;5009288;28;20457;-80
2021/04/25 02:04:26;;;;;;;1.60;1.40;;;5.60;89.10;;;;;;5008263;28;21199;-80
2021/04/25 02:06:53;;;;;;;1.50;1.30;;;5.50;89.20;;;;;;5013035;28;20553;-80
2021/04/25 02:09:19;;;;;;;1.60;1.40;;;5.50;89.20;;;;;;5013407;28;20464;-79
2021/04/25 02:11:45;;;;;;;2.37;2.17;;;5.50;89.30;;;;;;5014274;28;21007;-80
2021/04/25 02:14:13;;;;;;;1.50;1.23;;;5.50;88.90;;;;;;5011480;28;20553;-79
2021/04/25 02:16:39;;;;;;;3.37;3.10;;;5.50;89.30;;;;;;5012016;28;20833;-80
2021/04/25 02:19:05;;;;;;;1.60;1.30;;;5.50;89.10;;;;;;5011681;28;20517;-80
2021/04/25 02:21:31;;;;;;;1.53;1.30;;;5.50;89.00;;;;;;5006114;28;20488;-80
2021/04/25 02:23:58;;;;;;;1.50;1.33;;;5.40;89.40;;;;;;5008004;28;20837;-80
2021/04/25 02:26:24;;;;;;;1.50;1.30;;;5.40;89.60;;;;;;5009619;28;20583;-80
2021/04/25 02:28:51;;;;;;;1.50;1.30;;;5.40;89.30;;;;;;5010961;28;20476;-80
2021/04/25 02:31:18;;;;;;;1.50;1.30;;;5.40;89.60;;;;;;5007099;28;21072;-80
2021/04/25 02:33:45;;;;;;;1.50;1.33;;;5.30;89.50;;;;;;5010111;28;20535;-80
2021/04/25 02:36:11;;;;;;;1.50;1.30;;;5.30;89.80;;;;;;5009925;28;21061;-80
2021/04/25 02:38:37;;;;;;;1.53;1.37;;;5.20;90.10;;;;;;5013227;28;20543;-80
2021/04/25 02:41:04;;;;;;;1.57;1.30;;;5.20;89.70;;;;;;5009624;28;20485;-80
2021/04/25 02:43:30;;;;;;;1.60;1.43;;;5.20;89.80;;;;;;5009516;28;20467;-80
2021/04/25 02:45:57;;;;;;;1.60;1.40;;;5.10;89.80;;;;;;5010383;28;20491;-80
2021/04/25 02:48:24;;;;;;;1.53;1.40;;;5.10;89.70;;;;;;5008899;28;20472;-80
2021/04/25 02:50:50;;;;;;;1.53;1.30;;;5.10;89.80;;;;;;5011640;28;20467;-80
2021/04/25 02:53:16;;;;;;;1.57;1.37;;;5.00;89.80;;;;;;5009099;28;20473;-80
2021/04/25 02:55:43;;;;;;;1.60;1.40;;;5.00;90.80;;;;;;5016776;28;20488;-80
2021/04/25 02:58:10;;;;;;;1.60;1.43;;;4.90;90.80;;;;;;5012685;28;20514;-80
2021/04/25 03:00:37;;;;;;;1.50;1.40;;;4.90;91.10;;;;;;5009757;28;20488;-80
2021/04/25 03:03:04;;;;;;;1.60;1.50;;;4.90;91.20;;;;;;5013788;28;21116;-80
2021/04/25 03:05:31;;;;;;;1.57;1.40;;;4.80;91.20;;;;;;5012866;28;20472;-79
2021/04/25 03:07:57;;;;;;;1.50;1.30;;;4.80;91.50;;;;;;5008723;28;20507;-80
2021/04/25 03:10:25;;;;;;;1.60;1.30;;;4.80;91.30;;;;;;5009415;28;20539;-80
2021/04/25 03:12:52;;;;;;;1.50;1.30;;;4.80;91.70;;;;;;5006323;28;20468;-80
2021/04/25 03:15:20;;;;;;;1.60;1.40;;;4.70;91.80;;;;;;5013835;28;20976;-80
2021/04/25 03:17:46;;;;;;;1.60;1.47;;;4.70;92.30;;;;;;5016531;28;20495;-80
2021/04/25 03:20:15;;;;;;;1.60;1.30;;;4.70;92.30;;;;;;5011001;28;20586;-79
2021/04/25 03:22:43;;;;;;;1.57;1.30;;;4.70;92.40;;;;;;5011377;28;20483;-80
2021/04/25 03:25:11;;;;;;;1.57;1.30;;;4.70;92.50;;;;;;5015591;28;20918;-80
2021/04/25 03:27:38;;;;;;;1.60;1.40;;;4.60;92.50;;;;;;5015817;28;20520;-80
2021/04/25 03:30:07;;;;;;;1.53;1.30;;;4.60;92.50;;;;;;5012949;28;20495;-80
2021/04/25 03:32:34;;;;;;;1.57;1.30;;;4.60;92.60;;;;;;5014369;28;20910;-80
2021/04/25 03:35:01;;;;;;;3.00;2.80;;;4.60;92.50;;;;;;5011787;28;20471;-80
2021/04/25 03:37:27;;;;;;;1.57;1.30;;;4.60;92.60;;;;;;5016000;28;20502;-80
2021/04/25 03:39:54;;;;;;;1.53;1.30;;;4.60;93.10;;;;;;5017694;28;20492;-79
2021/04/25 03:42:20;;;;;;;1.50;1.30;;;4.60;92.60;;;;;;5015415;28;20875;-80
2021/04/25 03:44:47;;;;;;;1.57;1.30;;;4.50;93.20;;;;;;5015150;28;20469;-80
2021/04/25 03:47:14;;;;;;;1.60;1.50;;;4.50;93.30;;;;;;5012088;28;20519;-80
2021/04/25 03:49:41;;;;;;;1.70;1.60;;;4.50;93.20;;;;;;5015470;28;20460;-80
2021/04/25 03:52:08;;;;;;;1.60;1.43;;;4.50;93.10;;;;;;5009932;28;20484;-80
2021/04/25 03:54:36;;;;;;;1.50;1.30;;;4.50;93.30;;;;;;5013928;28;20535;-80
2021/04/25 03:57:10;;;;;;;2.73;2.43;;;4.50;93.10;;;;;;5012216;28;20483;-80
2021/04/25 03:59:37;;;;;;;1.57;1.40;;;4.50;93.00;;;;;;5006178;28;20518;-80
2021/04/25 04:02:04;;;;;;;1.57;1.40;;;4.50;92.60;;;;;;5012914;28;20472;-80
2021/04/25 04:04:31;;;;;;;1.50;1.40;;;4.50;93.00;;;;;;5014001;28;20484;-80
2021/04/25 04:06:57;;;;;;;1.53;1.40;;;4.50;93.00;;;;;;5015497;28;20534;-79
2021/04/25 04:09:23;;;;;;;1.60;1.47;;;4.50;93.30;;;;;;5009015;28;20978;-80
2021/04/25 04:11:49;;;;;;;1.60;1.40;;;4.40;92.80;;;;;;5008092;28;20466;-80
2021/04/25 04:14:17;;;;;;;1.50;1.30;;;4.40;93.20;;;;;;5014719;28;20464;-79
2021/04/25 04:16:43;;;;;;;1.57;1.40;;;4.40;93.00;;;;;;5016313;28;20480;-80
2021/04/25 04:19:09;;;;;;;1.50;1.40;;;4.40;92.50;;;;;;5013580;28;20823;-79
2021/04/25 04:21:35;;;;;;;1.53;1.30;;;4.40;92.70;;;;;;5011351;28;20489;-80
2021/04/25 04:24:02;;;;;;;1.57;1.30;;;4.30;92.50;;;;;;5016285;28;20471;-79
2021/04/25 04:26:28;;;;;;;1.60;1.40;;;4.30;92.70;;;;;;5016539;28;20498;-80
2021/04/25 04:28:54;;;;;;;1.60;1.40;;;4.30;93.30;;;;;;5013757;28;20464;-80
2021/04/25 04:31:21;;;;;;;1.60;1.50;;;4.20;93.60;;;;;;5014796;28;20963;-80
2021/04/25 04:33:48;;;;;;;1.57;1.30;;;4.20;93.00;;;;;;5001674;28;20823;-80
2021/04/25 04:36:14;;;;;;;1.60;1.50;;;4.20;93.30;;;;;;5009557;28;20496;-80
2021/04/25 04:38:40;;;;;;;1.57;1.40;;;4.20;93.50;;;;;;5013233;28;20479;-80
2021/04/25 04:41:12;;;;;;;1.60;1.40;;;4.20;93.60;;;;;;5007820;28;20498;-82
2021/04/25 04:43:39;;;;;;;1.60;1.40;;;4.20;93.90;;;;;;5013715;28;20532;-81
2021/04/25 04:46:05;;;;;;;1.60;1.40;;;4.30;93.80;;;;;;5010195;28;20484;-81
2021/04/25 04:48:32;;;;;;;1.53;1.40;;;4.30;93.90;;;;;;5016088;28;20547;-81
2021/04/25 04:50:58;;;;;;;1.60;1.37;;;4.30;94.20;;;;;;5007496;28;20491;-81
2021/04/25 04:53:25;;;;;;;1.60;1.30;;;4.30;94.60;;;;;;5010999;28;20456;-80
2021/04/25 04:55:51;;;;;;;1.53;1.40;;;4.30;94.80;;;;;;5004258;28;20491;-81
2021/04/25 04:58:17;;;;;;;1.50;1.40;;;4.40;94.70;;;;;;5010702;28;20457;-81
2021/04/25 05:00:44;;;;;;;1.57;1.30;;;4.40;94.30;;;;;;5013911;28;20480;-81
2021/04/25 05:03:10;;;;;;;1.60;1.40;;;4.50;94.20;;;;;;5011218;28;20467;-81
2021/04/25 05:05:37;;;;;;;1.53;1.40;;;4.50;94.50;;;;;;5012009;28;20541;-80
2021/04/25 05:08:04;;;;;;;1.60;1.40;;;4.50;94.70;;;;;;5013727;28;20467;-80
2021/04/25 05:10:30;;;;;;;1.50;1.30;;;4.60;94.90;;;;;;5006822;28;20472;-80
2021/04/25 05:12:56;;;;;;;1.60;1.40;;;4.60;94.70;;;;;;5004818;28;20588;-80
2021/04/25 05:15:23;;;;;;;1.57;1.30;;;4.70;94.60;;;;;;5007937;28;20847;-81
2021/04/25 05:17:49;;;;;;;1.53;1.30;;;4.80;94.50;;;;;;5006914;28;20464;-80
2021/04/25 05:20:15;;;;;;;1.57;1.30;;;4.90;94.10;;;;;;5005805;28;20480;-79
2021/04/25 05:22:43;;;;;;;1.57;1.40;;;4.90;94.10;;;;;;5005978;28;20479;-80
2021/04/25 05:25:10;;;;;;;1.50;1.27;;;5.00;94.10;;;;;;5012685;28;20472;-81
2021/04/25 05:27:36;;;;;;;1.50;1.30;;;5.10;93.90;;;;;;5058809;22;20664;-75
2021/04/25 05:30:03;;;;;;;1.57;1.30;;;5.20;93.50;;;;;;5045385;28;20546;-75
2021/04/25 05:32:30;;;;;;;1.50;1.30;;;5.20;93.40;;;;;;5041244;28;20469;-75
2021/04/25 05:34:56;;;;;;;1.53;1.30;;;5.30;93.20;;;;;;5040637;28;20965;-74
2021/04/25 05:37:22;;;;;;;1.50;1.20;;;5.40;93.30;;;;;;5039989;28;20486;-76
2021/04/25 05:39:49;;;;;;;1.50;1.30;;;5.50;92.90;;;;;;5043607;28;20489;-76
2021/04/25 05:42:16;;;;;;;1.50;1.27;;;5.60;92.50;;;;;;5039714;28;20961;-77
2021/04/25 05:44:42;;;;;;;1.50;1.30;;;5.70;92.20;;;;;;5040865;28;20458;-77
2021/04/25 05:47:08;;;;;;;1.60;1.40;;;5.80;91.90;;;;;;5041895;28;20487;-76
2021/04/25 05:49:34;;;;;;;1.50;1.27;;;5.80;91.80;;;;;;5043886;28;20465;-76
2021/04/25 05:52:00;;;;;;;1.50;1.20;;;5.90;91.50;;;;;;5041641;28;20459;-77
2021/04/25 05:54:27;;;;;;;1.50;1.20;;;6.00;91.20;;;;;;5045106;28;20458;-77
2021/04/25 05:56:54;;;;;;;1.60;1.40;;;6.00;91.30;;;;;;5034874;28;20526;-77
2021/04/25 05:59:20;;;;;;;1.57;1.40;;;6.10;90.80;;;;;;5042011;28;20467;-77
2021/04/25 06:01:46;;;;;;;1.50;1.27;;;6.10;90.60;;;;;;5038843;28;21191;-76
2021/04/25 06:04:13;;;;;;;1.60;1.40;;;6.20;90.40;;;;;;5045193;28;20458;-76
2021/04/25 06:06:39;;;;;;;1.53;1.30;;;6.20;90.10;;;;;;5037777;28;20498;-77
2021/04/25 06:09:06;;;;;;;1.50;1.30;;;6.30;89.90;;;;;;5043127;28;20463;-77
2021/04/25 06:11:34;;;;;;;1.50;1.30;;;6.30;89.60;;;;;;5038441;28;20467;-77
2021/04/25 06:14:01;;;;;;;1.50;1.27;;;6.40;90.10;;;;;;5043417;28;20969;-76
2021/04/25 06:16:27;;;;;;;1.50;1.20;;;6.50;89.80;;;;;;5046111;28;20482;-76
2021/04/25 06:18:53;;;;;;;1.50;1.30;;;6.60;89.10;;;;;;5042719;28;20877;-76
2021/04/25 06:21:21;;;;;;;1.50;1.20;;;6.60;89.20;;;;;;5041499;28;20491;-78
2021/04/25 06:23:48;;;;;;;1.50;1.20;;;6.70;88.20;;;;;;5047153;28;20461;-77
2021/04/25 06:26:14;;;;;;;1.50;1.20;;;6.70;88.00;;;;;;5046953;28;20482;-77
2021/04/25 06:28:40;;;;;;;1.50;1.20;;;6.70;87.70;;;;;;5048880;28;20469;-77
2021/04/25 06:31:07;;;;;;;1.50;1.30;;;6.70;87.50;;;;;;5045313;28;20516;-77
2021/04/25 06:33:34;;;;;;;1.50;1.10;;;6.70;87.60;;;;;;5047984;28;20482;-76
2021/04/25 06:36:00;;;;;;;1.50;1.30;;;6.80;87.50;;;;;;5041969;28;20491;-76
2021/04/25 06:38:26;;;;;;;1.50;1.20;;;6.80;87.10;;;;;;5040800;28;20467;-76
2021/04/25 06:40:52;;;;;;;1.50;1.20;;;6.80;86.20;;;;;;5037630;28;20483;-76
2021/04/25 06:43:18;;;;;;;2.33;2.13;;;6.70;85.80;;;;;;5046958;28;20474;-75
2021/04/25 06:45:46;;;;;;;1.50;1.30;;;6.70;85.90;;;;;;5044464;28;20463;-77
2021/04/25 06:48:13;;;;;;;1.50;1.20;;;6.80;86.00;;;;;;5046405;28;21129;-74
2021/04/25 06:50:39;;;;;;;1.50;1.20;;;6.80;84.80;;;;;;5042453;28;20861;-75
2021/04/25 06:53:06;;;;;;;1.50;1.20;;;6.90;84.30;;;;;;5048562;28;21039;-77
2021/04/25 06:55:33;;;;;;;1.50;1.20;;;6.90;82.70;;;;;;5046794;28;20524;-74
2021/04/25 06:57:59;;;;;;;1.50;1.20;;;6.90;82.70;;;;;;5050319;28;20493;-76
2021/04/25 07:00:26;;;;;;;1.50;1.20;;;6.90;83.20;;;;;;5046323;28;20481;-76
2021/04/25 07:02:54;;;;;;;1.50;1.20;;;7.10;83.10;;;;;;5052225;28;20458;-77
2021/04/25 07:05:22;;;;;;;1.50;1.20;;;7.20;82.10;;;;;;5055288;28;20465;-74
2021/04/25 07:07:50;;;;;;;1.50;1.30;;;7.20;80.80;;;;;;5052200;28;20492;-74
2021/04/25 07:10:16;;;;;;;1.50;1.20;;;7.20;81.10;;;;;;5046876;28;20462;-76
2021/04/25 07:12:42;;;;;;;1.50;1.20;;;7.20;81.10;;;;;;5051793;28;20515;-76
2021/04/25 07:15:10;;;;;;;1.50;1.20;;;7.20;81.30;;;;;;5050875;28;20478;-76
2021/04/25 07:17:36;;;;;;;1.50;1.30;;;7.10;81.30;;;;;;5045978;28;20508;-76
2021/04/25 07:20:03;;;;;;;1.50;1.30;;;7.20;81.50;;;;;;5048532;28;20486;-76
2021/04/25 07:22:30;;;;;;;1.50;1.20;;;7.30;80.70;;;;;;5048037;28;20462;-76
2021/04/25 07:24:57;;;;;;;1.50;1.30;;;7.20;80.10;;;;;;5042604;28;20466;-75
2021/04/25 07:27:23;;;;;;;1.50;1.10;;;7.30;80.60;;;;;;5044014;28;21063;-77
2021/04/25 07:29:50;;;;;;;1.50;1.20;;;7.40;79.90;;;;;;5041963;28;20475;-77
2021/04/25 07:32:16;;;;;;;1.50;1.20;;;7.50;80.20;;;;;;5039785;28;20458;-75
2021/04/25 07:34:43;;;;;;;1.50;1.20;;;7.50;79.20;;;;;;5050841;28;20829;-77
2021/04/25 07:37:09;;;;;;;1.50;1.20;;;7.50;79.40;;;;;;5050860;28;20473;-76
2021/04/25 07:39:37;;;;;;;1.50;1.20;;;7.50;79.10;;;;;;5042156;28;20470;-76
2021/04/25 07:42:04;;;;;;;1.50;1.20;;;7.40;78.70;;;;;;5039605;28;20482;-75
2021/04/25 07:44:31;;;;;;;1.50;1.10;;;7.60;78.90;;;;;;5045173;28;20466;-76
2021/04/25 07:47:00;;;;;;;1.50;1.10;;;7.70;78.60;;;;;;5043594;28;20478;-76
2021/04/25 07:49:26;;;;;;;1.50;1.17;;;8.10;77.80;;;;;;5042687;28;20516;-74
2021/04/25 07:51:52;;;;;;;1.50;1.10;;;8.50;77.90;;;;;;5047728;28;20458;-76
2021/04/25 07:54:19;;;;;;;1.50;1.10;;;8.70;75.70;;;;;;5042399;28;20474;-75
2021/04/25 07:56:46;;;;;;;1.50;1.10;;;8.90;76.00;;;;;;5043679;28;21071;-75
2021/04/25 07:59:12;;;;;;;1.50;1.20;;;8.90;75.60;;;;;;5040373;28;20477;-76
2021/04/25 08:01:38;;;;;;;1.50;1.10;;;9.10;76.40;;;;;;5048240;28;20478;-76
2021/04/25 08:04:05;;;;;;;1.50;1.20;;;9.20;75.80;;;;;;5047120;28;20508;-75
2021/04/25 08:06:31;;;;;;;1.50;1.10;;;9.30;76.00;;;;;;5039747;28;21015;-75
2021/04/25 08:08:57;;;;;;;1.50;1.10;;;9.40;75.40;;;;;;5045398;28;20622;-76
2021/04/25 08:11:24;;;;;;;1.50;1.20;;;9.40;74.00;;;;;;5046168;28;20561;-76
2021/04/25 08:13:51;;;;;;;1.50;1.10;;;9.20;74.40;;;;;;5040862;28;20996;-75
2021/04/25 08:16:17;;;;;;;1.50;1.10;;;9.10;75.40;;;;;;5045330;28;21012;-75
2021/04/25 08:18:44;;;;;;;1.50;1.27;;;9.10;75.30;;;;;;5041113;28;20466;-76
2021/04/25 08:21:10;;;;;;;1.50;1.10;;;9.00;74.70;;;;;;5047587;28;20516;-77
2021/04/25 08:23:37;;;;;;;1.50;1.20;;;9.30;75.60;;;;;;5037301;28;20528;-76
2021/04/25 08:26:03;;;;;;;1.60;1.40;;;9.60;75.00;;;;;;5037834;28;20502;-75
2021/04/25 08:28:29;;;;;;;1.50;1.10;;;9.90;74.00;;;;;;5037377;28;20474;-75
2021/04/25 08:30:57;;;;;;;1.50;1.20;;;10.10;73.60;;;;;;5030663;28;20463;-76
2021/04/25 08:33:23;;;;;;;1.50;1.00;;;10.30;73.20;;;;;;5039982;28;20492;-76
2021/04/25 08:35:49;;;;;;;1.50;1.10;;;10.50;72.60;;;;;;5042388;28;20467;-75
2021/04/25 08:38:16;;;;;;;1.50;1.00;;;10.70;73.10;;;;;;5039965;28;20570;-75
2021/04/25 08:40:43;;;;;;;1.50;1.00;;;10.90;72.30;;;;;;5047686;28;20487;-75
2021/04/25 08:43:12;;;;;;;1.50;1.00;;;10.70;71.70;;;;;;5045543;28;20965;-75
2021/04/25 08:45:50;;;;;;;1.50;1.00;;;10.90;72.20;;;;;;5041164;28;20459;-75
2021/04/25 08:48:22;;;;;;;1.50;1.00;;;11.00;72.00;;;;;;5042164;28;20541;-76
2021/04/25 08:50:48;;;;;;;1.50;1.20;;;11.10;71.70;;;;;;5036861;28;20459;-76
2021/04/25 08:53:15;;;;;;;1.50;1.10;;;11.00;71.70;;;;;;5037864;28;21387;-76
2021/04/25 08:55:41;;;;;;;1.50;1.00;;;11.00;71.60;;;;;;5041088;28;20469;-75
2021/04/25 08:58:09;;;;;;;1.50;1.00;;;11.00;72.80;;;;;;5046334;28;20479;-76
2021/04/25 09:00:35;;;;;;;1.50;1.10;;;11.00;71.60;;;;;;5039044;28;20482;-76
2021/04/25 09:03:01;;;;;;;1.60;1.37;;;10.90;71.70;;;;;;5035439;28;20475;-77
2021/04/25 09:05:29;;;;;;;1.50;1.00;;;11.00;72.50;;;;;;5040792;28;20473;-76
2021/04/25 09:07:57;;;;;;;1.50;1.10;;;11.10;71.50;;;;;;5043268;28;20489;-76
2021/04/25 09:10:34;;;;;;;1.50;1.00;;;11.10;72.40;;;;;;5038755;28;20820;-75
2021/04/25 09:13:12;;;;;;;1.43;1.00;;;11.00;71.50;;;;;;5039170;28;20470;-74
2021/04/25 09:15:39;;;;;;;1.50;1.00;;;11.20;71.70;;;;;;5039691;28;20463;-76
2021/04/25 09:18:05;;;;;;;1.50;0.97;;;11.30;71.00;;;;;;5041759;28;20467;-75
2021/04/25 09:20:35;;;;;;;1.50;1.00;;;11.50;70.70;;;;;;5038524;28;20487;-75
2021/04/25 09:23:06;;;;;;;1.50;1.00;;;11.70;69.50;;;;;;5046812;28;20536;-76
2021/04/25 09:25:36;;;;;;;1.50;1.03;;;11.70;70.20;;;;;;5043730;28;20470;-74
2021/04/25 09:28:11;;;;;;;1.50;1.10;;;11.70;70.00;;;;;;5038258;28;21004;-76
2021/04/25 09:30:37;;;;;;;1.50;1.10;;;11.90;69.90;;;;;;5036935;28;20459;-75
2021/04/25 09:33:06;;;;;;;1.50;1.00;;;12.00;69.60;;;;;;5044870;28;20466;-75
2021/04/25 09:35:33;;;;;;;1.50;1.00;;;12.00;69.00;;;;;;5036715;28;20475;-76
2021/04/25 09:38:10;;;;;;;1.50;1.00;;;12.20;69.50;;;;;;5041848;28;20490;-75
2021/04/25 09:40:40;;;;;;;1.50;1.00;;;12.30;68.40;;;;;;5041824;28;20484;-75
2021/04/25 09:43:09;;;;;;;1.50;1.00;;;12.30;68.10;;;;;;5034085;28;20528;-76
2021/04/25 09:45:37;;;;;;;1.40;1.00;;;12.30;68.90;;;;;;5039752;28;20466;-76
2021/04/25 09:48:20;;;;;;;1.50;1.00;;;12.40;68.00;;;;;;5042691;28;20466;-75
2021/04/25 09:51:05;;;;;;;1.50;1.10;;;12.30;66.90;;;;;;5042208;28;20512;-76
2021/04/25 09:53:31;;;;;;;1.43;0.90;;;12.60;66.50;;;;;;5036046;28;20527;-77
2021/04/25 09:55:58;;;;;;;1.50;1.10;;;12.60;67.30;;;;;;5039602;28;20463;-76
2021/04/25 09:58:27;;;;;;;1.47;1.00;;;12.40;66.60;;;;;;5037957;28;20466;-76
2021/04/25 10:00:53;;;;;;;1.80;1.67;;;12.50;67.10;;;;;;5040998;28;20486;-77
2021/04/25 10:03:22;;;;;;;1.43;0.97;;;12.80;67.90;;;;;;5041408;28;20463;-77
2021/04/25 10:05:59;;;;;;;1.50;1.00;;;12.90;67.90;;;;;;5038614;28;20467;-76
2021/04/25 10:08:29;;;;;;;1.50;1.00;;;13.20;67.90;;;;;;5041384;28;20509;-77
2021/04/25 10:10:55;;;;;;;1.47;1.00;;;13.20;67.50;;;;;;5040074;28;20467;-77
2021/04/25 10:13:21;;;;;;;1.50;0.90;;;13.30;66.40;;;;;;5036954;28;21649;-77
2021/04/25 10:15:47;;;;;;;1.47;0.90;;;13.30;67.50;;;;;;5036128;28;20534;-77
2021/04/25 10:18:17;;;;;;;1.50;1.17;;;13.40;66.40;;;;;;5040248;28;20466;-77
2021/04/25 10:20:43;;;;;;;1.40;0.90;;;13.50;67.00;;;;;;5043044;28;20486;-77
2021/04/25 10:23:16;;;;;;;1.60;1.43;;;13.60;67.70;;;;;;5040154;28;20860;-75
2021/04/25 10:25:43;;;;;;;1.50;0.97;;;13.80;67.80;;;;;;5043196;28;20462;-77
2021/04/25 10:28:13;;;;;;;1.50;1.10;;;13.90;65.30;;;;;;5044879;28;20473;-76
2021/04/25 10:30:42;;;;;;;1.50;0.90;;;14.00;65.80;;;;;;5038802;28;20467;-76
2021/04/25 10:33:10;;;;;;;1.47;0.90;;;14.00;64.80;;;;;;5035982;28;20462;-76
2021/04/25 10:35:37;;;;;;;1.47;0.90;;;14.20;65.40;;;;;;5044951;28;20462;-76
2021/04/25 10:38:04;;;;;;;1.50;1.20;;;14.40;65.40;;;;;;5038465;28;20473;-77
2021/04/25 10:40:36;;;;;;;1.47;1.00;;;14.30;63.80;;;;;;5038392;28;20485;-76
2021/04/25 10:43:10;;;;;;;1.47;0.90;;;14.30;64.10;;;;;;5037109;28;20474;-76
2021/04/25 10:45:55;;;;;;;1.50;1.00;;;14.30;63.80;;;;;;5040018;28;20459;-76
2021/04/25 10:48:27;;;;;;;1.50;0.90;;;14.50;64.60;;;;;;5035126;28;20474;-74
2021/04/25 10:50:56;;;;;;;1.43;0.90;;;14.50;63.50;;;;;;5034344;28;20462;-77
2021/04/25 10:53:28;;;;;;;1.50;1.00;;;14.70;63.90;;;;;;5038774;28;20472;-76
2021/04/25 10:56:24;;;;;;;1.50;1.00;;;14.70;64.70;;;;;;5040836;28;20496;-75
2021/04/25 10:59:30;;;;;;;1.50;1.00;;;14.70;63.60;;;;;;5035514;28;20512;-76
2021/04/25 11:02:00;;;;;;;1.47;0.97;;;14.70;62.80;;;;;;5041913;28;20502;-76
2021/04/25 11:05:06;;;;;;;1.47;0.90;;;14.70;64.10;;;;;;5036645;28;20472;-77
2021/04/25 11:07:44;;;;;;;1.50;0.90;;;14.90;64.10;;;;;;5045003;28;20948;-76
2021/04/25 11:10:11;;;;;;;1.50;0.90;;;15.10;63.40;;;;;;5041641;28;20470;-77
2021/04/25 11:12:40;;;;;;;1.47;0.90;;;15.10;62.00;;;;;;5038217;28;20684;-76
2021/04/25 11:15:08;;;;;;;1.50;0.90;;;15.10;62.50;;;;;;5038227;28;20564;-76
2021/04/25 11:17:35;;;;;;;1.50;0.90;;;14.90;62.20;;;;;;5038324;28;20595;-76
2021/04/25 11:20:31;;;;;;;1.50;1.00;;;14.90;62.60;;;;;;5037798;28;20463;-76
2021/04/25 11:22:57;;;;;;;1.43;0.90;;;15.10;63.30;;;;;;5039507;28;20478;-77
2021/04/25 11:25:34;;;;;;;1.47;0.90;;;15.30;62.20;;;;;;5043637;28;20465;-78
2021/04/25 11:28:00;;;;;;;1.50;1.00;;;15.40;63.20;;;;;;5038047;28;20577;-76
2021/04/25 11:30:39;;;;;;;1.50;0.90;;;15.60;61.80;;;;;;5070496;22;21002;-79
2021/04/25 11:33:33;;;;;;;1.47;0.90;;;15.60;61.60;;;;;;5053792;28;20919;-79
2021/04/25 11:36:37;;;;;;;1.50;0.90;;;15.40;61.10;;;;;;5056175;28;20504;-80
2021/04/25 11:39:06;;;;;;;1.47;0.90;;;15.20;62.10;;;;;;5054727;28;20484;-80
2021/04/25 11:41:32;;;;;;;1.47;0.90;;;15.30;62.70;;;;;;5045533;28;20489;-79
2021/04/25 11:43:59;;;;;;;1.50;0.90;;;15.50;62.40;;;;;;5044351;28;20474;-80
2021/04/25 11:46:32;;;;;;;1.43;0.90;;;15.40;61.40;;;;;;5040162;28;20470;-81
2021/04/25 11:49:01;;;;;;;1.50;1.00;;;15.30;61.50;;;;;;5036198;28;20486;-78
2021/04/25 11:51:28;;;;;;;1.50;0.97;;;15.10;62.10;;;;;;5043066;28;20466;-80
2021/04/25 11:53:54;;;;;;;1.43;0.90;;;15.20;61.60;;;;;;5048500;28;20463;-79
2021/04/25 11:56:29;;;;;;;1.47;0.90;;;15.30;61.20;;;;;;5040932;28;20461;-80
2021/04/25 11:59:09;;;;;;;1.40;0.90;;;15.30;63.10;;;;;;5044040;28;21245;-80
2021/04/25 12:01:35;;;;;;;1.47;0.90;;;15.40;63.10;;;;;;5041246;28;20494;-80
2021/04/25 12:04:04;;;;;;;1.50;1.00;;;15.50;62.60;;;;;;5039346;28;20536;-81
2021/04/25 12:06:45;;;;;;;1.43;0.90;;;15.70;63.50;;;;;;5038373;28;21362;-81
2021/04/25 12:09:11;;;;;;;1.50;0.90;;;16.00;61.80;;;;;;5042087;28;20552;-81
2021/04/25 12:11:37;;;;;;;1.50;0.90;;;16.10;63.10;;;;;;5041073;28;20562;-80
2021/04/25 12:14:16;;;;;;;1.50;0.90;;;16.30;61.30;;;;;;5040870;28;20692;-79
2021/04/25 12:16:42;;;;;;;1.50;0.90;;;16.20;60.60;;;;;;5042946;28;20554;-79
2021/04/25 12:19:20;;;;;;;1.47;0.90;;;16.40;60.40;;;;;;5037264;28;20490;-79
2021/04/25 12:21:47;;;;;;;1.80;1.43;;;16.60;60.80;;;;;;5043615;28;20608;-81
2021/04/25 12:24:13;;;;;;;1.50;0.90;;;16.40;59.70;;;;;;5040073;28;20466;-80
2021/04/25 12:26:44;;;;;;;1.50;0.90;;;16.30;61.00;;;;;;5038638;28;20470;-80
2021/04/25 12:29:10;;;;;;;1.47;0.90;;;16.40;61.20;;;;;;5039411;28;20498;-81
2021/04/25 12:31:43;;;;;;;1.60;1.20;;;16.40;60.90;;;;;;5039633;28;20459;-80
2021/04/25 12:34:14;;;;;;;1.47;0.90;;;16.50;60.60;;;;;;5039789;28;20881;-81
2021/04/25 12:36:48;;;;;;;1.50;1.00;;;16.50;59.80;;;;;;5042858;28;20458;-81
2021/04/25 12:39:15;;;;;;;1.47;0.90;;;16.40;60.70;;;;;;5035223;28;20566;-82
2021/04/25 12:41:46;;;;;;;1.47;0.90;;;16.50;60.30;;;;;;5044603;28;20490;-81
2021/04/25 12:44:14;;;;;;;1.60;1.10;;;16.50;60.10;;;;;;5040666;28;20596;-79
2021/04/25 12:46:40;;;;;;;1.50;0.90;;;16.40;59.60;;;;;;5039236;28;20468;-81
2021/04/25 12:49:09;;;;;;;1.43;0.90;;;16.50;60.40;;;;;;5040692;28;20487;-81
2021/04/25 12:51:46;;;;;;;1.50;0.90;;;16.60;61.00;;;;;;5040461;28;20463;-80
2021/04/25 12:54:14;;;;;;;1.47;0.90;;;16.60;59.50;;;;;;5041534;28;21075;-79
2021/04/25 12:56:51;;;;;;;1.47;0.90;;;16.50;58.80;;;;;;5037631;28;20478;-80
2021/04/25 12:59:20;;;;;;;1.43;0.90;;;16.60;60.20;;;;;;5040424;28;20561;-81